KASL/ASL METAR and TAF weather

Enter ICAO airport designator
Station Type Date Time Source
KASL METAR 2021/09/16 09:35 UTC NOAA

KASL 160935Z AUTO 00000KT 21/20 A2990 RMK AO1 T02100197


Station Type Date Time Source
KASL Decoded METAR 2021/09/16 09:35 UTC NOAA

Station name not available
Sep 16, 2021 - 05:35 AM EDT / 2021.09.16 0935 UTC
Wind: Calm:0
Temperature: 69.8 F (21.0 C)
Dew Point: 67.5 F (19.7 C)
Relative Humidity: 92%
Pressure (altimeter): 29.9 in. Hg (1012 hPa)
ob: KASL 160935Z AUTO 00000KT 21/20 A2990 RMK AO1 T02100197
cycle: 9

Station Type Date Time Source
KASL TAF UTC NOAA

Error!

Example: see airport list